DLH1905 YSSY-YMML
Flight info
| Callsign | DLH1905 |
|---|---|
| Flight time | 1h 1m |
| Altitude | 40000 |
| Route | MARUB7/34R WOL H65 LEECE Q29 ML |
| Aircraft | A359/H-SDE2E3GHIJ3J4J5LM1ORWXY/LB1D1 |
Departure
| Time | 2026-04-26 04:35 |
|---|---|
| Airport | Sydney Kingsford Smith International Airport (YSSY) |
Arrival
| Time | 2026-04-26 05:36 |
|---|---|
| Airport | Melbourne Airport (YMML) |
| Time | Latitude | Longitude | Altitude | Speed | Heading |
|---|---|---|---|---|---|
| 2026-04-26 04:12 | -33.94030 | 151.16537 | 27 ft | 0 kts | 345° |
| 2026-04-26 04:22 | -33.94031 | 151.16538 | 27 ft | 2 kts | 345° |
| 2026-04-26 04:23 | -33.94057 | 151.16544 | 27 ft | 4 kts | 355° |
| 2026-04-26 04:23 | -33.94077 | 151.16544 | 27 ft | 4 kts | 6° |
| 2026-04-26 04:23 | -33.94086 | 151.16543 | 26 ft | 4 kts | 12° |
| 2026-04-26 04:23 | -33.94096 | 151.16540 | 27 ft | 4 kts | 19° |
| 2026-04-26 04:24 | -33.94120 | 151.16527 | 27 ft | 4 kts | 39° |
| 2026-04-26 04:24 | -33.94138 | 151.16504 | 30 ft | 4 kts | 58° |
| 2026-04-26 04:24 | -33.94150 | 151.16475 | 31 ft | 4 kts | 72° |
| 2026-04-26 04:24 | -33.94156 | 151.16443 | 31 ft | 4 kts | 79° |
| 2026-04-26 04:25 | -33.94159 | 151.16426 | 27 ft | 0 kts | 74° |
| 2026-04-26 04:28 | -33.94152 | 151.16459 | 27 ft | 7 kts | 74° |
| 2026-04-26 04:28 | -33.94143 | 151.16498 | 27 ft | 7 kts | 75° |
| 2026-04-26 04:28 | -33.94124 | 151.16581 | 26 ft | 13 kts | 75° |
| 2026-04-26 04:28 | -33.94096 | 151.16711 | 28 ft | 19 kts | 76° |
| 2026-04-26 04:29 | -33.94056 | 151.16855 | 27 ft | 20 kts | 73° |
| 2026-04-26 04:29 | -33.94014 | 151.17026 | 27 ft | 21 kts | 73° |
| 2026-04-26 04:29 | -33.93984 | 151.17168 | 30 ft | 4 kts | 86° |
| 2026-04-26 04:29 | -33.94004 | 151.17217 | 26 ft | 9 kts | 135° |
| 2026-04-26 04:30 | -33.94082 | 151.17251 | 28 ft | 15 kts | 166° |
| 2026-04-26 04:30 | -33.94211 | 151.17286 | 28 ft | 23 kts | 167° |
| 2026-04-26 04:30 | -33.94382 | 151.17331 | 32 ft | 27 kts | 167° |
| 2026-04-26 04:30 | -33.94582 | 151.17384 | 32 ft | 32 kts | 167° |
| 2026-04-26 04:31 | -33.94806 | 151.17444 | 28 ft | 34 kts | 166° |
| 2026-04-26 04:31 | -33.95002 | 151.17496 | 26 ft | 18 kts | 168° |
| 2026-04-26 04:31 | -33.95129 | 151.17526 | 28 ft | 20 kts | 168° |
| 2026-04-26 04:31 | -33.95272 | 151.17561 | 25 ft | 22 kts | 168° |
| 2026-04-26 04:32 | -33.95410 | 151.17603 | 29 ft | 20 kts | 169° |
| 2026-04-26 04:32 | -33.95547 | 151.17638 | 27 ft | 20 kts | 169° |
| 2026-04-26 04:32 | -33.95685 | 151.17672 | 30 ft | 20 kts | 168° |
| 2026-04-26 04:32 | -33.95826 | 151.17707 | 29 ft | 22 kts | 168° |
| 2026-04-26 04:33 | -33.95975 | 151.17746 | 29 ft | 21 kts | 168° |
| 2026-04-26 04:33 | -33.96117 | 151.17777 | 30 ft | 21 kts | 169° |
| 2026-04-26 04:33 | -33.96261 | 151.17821 | 28 ft | 20 kts | 167° |
| 2026-04-26 04:33 | -33.96391 | 151.17856 | 29 ft | 19 kts | 163° |
| 2026-04-26 04:34 | -33.96432 | 151.17969 | 30 ft | 15 kts | 82° |
| 2026-04-26 04:34 | -33.96381 | 151.18047 | 30 ft | 11 kts | 9° |
| 2026-04-26 04:34 | -33.96356 | 151.18045 | 30 ft | 4 kts | 353° |
| 2026-04-26 04:34 | -33.96111 | 151.17987 | 28 ft | 69 kts | 347° |
| 2026-04-26 04:35 | -33.95443 | 151.17815 | 28 ft | 125 kts | 347° |
| 2026-04-26 04:35 | -33.94425 | 151.17543 | 50 ft | 171 kts | 348° |
| 2026-04-26 04:35 | -33.93294 | 151.17188 | 360 ft | 161 kts | 345° |
| 2026-04-26 04:35 | -33.92538 | 151.16402 | 820 ft | 144 kts | 290° |
| 2026-04-26 04:36 | -33.92490 | 151.15885 | 830 ft | 141 kts | 258° |
| 2026-04-26 04:36 | -33.92940 | 151.15103 | 872 ft | 175 kts | 222° |
| 2026-04-26 04:36 | -33.93371 | 151.14286 | 1157 ft | 187 kts | 248° |
| 2026-04-26 04:37 | -33.93507 | 151.13863 | 1246 ft | 184 kts | 254° |
| 2026-04-26 04:37 | -33.93734 | 151.12312 | 1527 ft | 196 kts | 273° |
| 2026-04-26 04:37 | -33.93304 | 151.10730 | 1671 ft | 208 kts | 310° |
| 2026-04-26 04:37 | -33.92230 | 151.09489 | 1911 ft | 224 kts | 323° |
| 2026-04-26 04:38 | -33.90953 | 151.08286 | 2209 ft | 242 kts | 324° |
| 2026-04-26 04:38 | -33.89730 | 151.06840 | 2770 ft | 248 kts | 308° |
| 2026-04-26 04:38 | -33.89006 | 151.04957 | 3468 ft | 252 kts | 283° |
| 2026-04-26 04:38 | -33.89132 | 151.02860 | 4199 ft | 257 kts | 250° |
| 2026-04-26 04:39 | -33.90210 | 151.01162 | 4942 ft | 261 kts | 215° |
| 2026-04-26 04:39 | -33.91877 | 151.00320 | 5717 ft | 261 kts | 195° |
| 2026-04-26 04:39 | -33.93619 | 150.99792 | 6439 ft | 263 kts | 194° |
| 2026-04-26 04:39 | -33.95390 | 150.99266 | 7157 ft | 266 kts | 194° |
| 2026-04-26 04:40 | -33.97196 | 150.98704 | 7881 ft | 270 kts | 195° |
| 2026-04-26 04:40 | -33.99017 | 150.98120 | 8635 ft | 272 kts | 195° |
| 2026-04-26 04:40 | -34.00863 | 150.97517 | 9397 ft | 275 kts | 195° |
| 2026-04-26 04:40 | -34.02722 | 150.96905 | 10168 ft | 278 kts | 195° |
| 2026-04-26 04:41 | -34.04600 | 150.96283 | 10863 ft | 281 kts | 195° |
| 2026-04-26 04:41 | -34.06502 | 150.95649 | 11561 ft | 285 kts | 195° |
| 2026-04-26 04:41 | -34.08422 | 150.95010 | 12275 ft | 287 kts | 195° |
| 2026-04-26 04:41 | -34.10361 | 150.94364 | 12984 ft | 290 kts | 195° |
| 2026-04-26 04:42 | -34.12318 | 150.93712 | 13698 ft | 293 kts | 195° |
| 2026-04-26 04:42 | -34.14296 | 150.93051 | 14355 ft | 296 kts | 195° |
| 2026-04-26 04:42 | -34.16300 | 150.92382 | 14953 ft | 300 kts | 195° |
| 2026-04-26 04:42 | -34.18301 | 150.91713 | 15516 ft | 304 kts | 195° |
| 2026-04-26 04:43 | -34.20354 | 150.91027 | 16093 ft | 308 kts | 194° |
| 2026-04-26 04:43 | -34.22436 | 150.90331 | 16680 ft | 311 kts | 194° |
| 2026-04-26 04:43 | -34.24523 | 150.89632 | 17349 ft | 312 kts | 194° |
| 2026-04-26 04:43 | -34.26625 | 150.88927 | 17976 ft | 314 kts | 194° |
| 2026-04-26 04:44 | -34.28716 | 150.88227 | 18532 ft | 317 kts | 194° |
| 2026-04-26 04:44 | -34.30876 | 150.87502 | 18929 ft | 324 kts | 194° |
| 2026-04-26 04:44 | -34.33066 | 150.86768 | 19430 ft | 327 kts | 194° |
| 2026-04-26 04:44 | -34.35269 | 150.86029 | 19940 ft | 330 kts | 194° |
| 2026-04-26 04:45 | -34.37495 | 150.85282 | 20447 ft | 332 kts | 194° |
| 2026-04-26 04:45 | -34.39731 | 150.84531 | 21014 ft | 332 kts | 195° |
| 2026-04-26 04:45 | -34.41959 | 150.83781 | 21586 ft | 332 kts | 195° |
| 2026-04-26 04:45 | -34.44195 | 150.83029 | 22067 ft | 335 kts | 195° |
| 2026-04-26 04:46 | -34.46429 | 150.82278 | 22572 ft | 337 kts | 195° |
| 2026-04-26 04:46 | -34.48700 | 150.81514 | 23078 ft | 339 kts | 195° |
| 2026-04-26 04:46 | -34.50981 | 150.80746 | 23550 ft | 342 kts | 195° |
| 2026-04-26 04:46 | -34.53248 | 150.79855 | 23970 ft | 345 kts | 202° |
| 2026-04-26 04:47 | -34.55704 | 150.78248 | 24430 ft | 347 kts | 216° |
| 2026-04-26 04:47 | -34.57844 | 150.75888 | 24909 ft | 348 kts | 228° |
| 2026-04-26 04:47 | -34.60311 | 150.72145 | 25638 ft | 348 kts | 234° |
| 2026-04-26 04:47 | -34.63053 | 150.67366 | 26668 ft | 343 kts | 236° |
| 2026-04-26 04:48 | -34.68601 | 150.57866 | 28157 ft | 349 kts | 234° |
| 2026-04-26 04:48 | -34.71472 | 150.53086 | 28873 ft | 351 kts | 234° |
| 2026-04-26 04:48 | -34.74365 | 150.48273 | 29614 ft | 353 kts | 234° |
| 2026-04-26 04:49 | -34.77250 | 150.43459 | 30420 ft | 350 kts | 234° |
| 2026-04-26 04:49 | -34.80105 | 150.38684 | 31038 ft | 348 kts | 234° |
| 2026-04-26 04:49 | -34.82946 | 150.33924 | 31637 ft | 346 kts | 234° |
| 2026-04-26 04:49 | -34.85770 | 150.29186 | 32173 ft | 345 kts | 234° |
| 2026-04-26 04:50 | -34.88588 | 150.24456 | 32633 ft | 345 kts | 234° |
| 2026-04-26 04:50 | -34.91426 | 150.19684 | 32917 ft | 350 kts | 234° |
| 2026-04-26 04:50 | -34.94323 | 150.14805 | 33106 ft | 359 kts | 234° |
| 2026-04-26 04:50 | -34.97245 | 150.09875 | 33311 ft | 367 kts | 234° |
| 2026-04-26 04:51 | -35.02476 | 150.01035 | 33680 ft | 382 kts | 234° |
| 2026-04-26 04:51 | -35.08794 | 149.90352 | 34148 ft | 399 kts | 234° |
| 2026-04-26 04:51 | -35.12077 | 149.84768 | 34341 ft | 408 kts | 234° |
| 2026-04-26 04:51 | -35.15434 | 149.79049 | 34525 ft | 418 kts | 234° |
| 2026-04-26 04:52 | -35.19268 | 149.72515 | 34735 ft | 428 kts | 235° |
| 2026-04-26 04:52 | -35.26290 | 149.60525 | 35463 ft | 437 kts | 235° |
| 2026-04-26 04:52 | -35.32626 | 149.49667 | 36141 ft | 443 kts | 236° |
| 2026-04-26 04:52 | -35.36178 | 149.43565 | 36482 ft | 446 kts | 236° |
| 2026-04-26 04:53 | -35.39789 | 149.37351 | 36827 ft | 450 kts | 236° |
| 2026-04-26 04:53 | -35.43435 | 149.31069 | 37174 ft | 453 kts | 236° |
| 2026-04-26 04:53 | -35.47092 | 149.24753 | 37491 ft | 456 kts | 236° |
| 2026-04-26 04:53 | -35.50764 | 149.18399 | 37803 ft | 458 kts | 236° |
| 2026-04-26 04:54 | -35.56187 | 149.08993 | 38218 ft | 462 kts | 236° |
| 2026-04-26 04:54 | -35.61335 | 149.00044 | 38607 ft | 465 kts | 236° |
| 2026-04-26 04:54 | -35.65084 | 148.93513 | 38841 ft | 468 kts | 236° |
| 2026-04-26 04:54 | -35.68841 | 148.86957 | 39058 ft | 470 kts | 236° |
| 2026-04-26 04:55 | -35.72607 | 148.80370 | 39266 ft | 472 kts | 236° |
| 2026-04-26 04:55 | -35.76382 | 148.73754 | 39457 ft | 473 kts | 237° |
| 2026-04-26 04:55 | -35.80176 | 148.67094 | 39658 ft | 475 kts | 237° |
| 2026-04-26 04:55 | -35.83969 | 148.60425 | 39809 ft | 477 kts | 237° |
| 2026-04-26 04:56 | -35.87738 | 148.53781 | 40007 ft | 478 kts | 237° |
| 2026-04-26 04:56 | -35.89703 | 148.50317 | 40128 ft | 477 kts | 237° |
| 2026-04-26 04:56 | -35.92860 | 148.44722 | 40252 ft | 479 kts | 237° |
| 2026-04-26 04:57 | -35.96672 | 148.37927 | 40234 ft | 483 kts | 237° |
| 2026-04-26 04:57 | -36.00495 | 148.31108 | 40249 ft | 484 kts | 237° |
| 2026-04-26 04:58 | -36.04319 | 148.24287 | 40238 ft | 482 kts | 237° |
| 2026-04-26 04:58 | -36.08127 | 148.17484 | 39686 ft | 482 kts | 237° |
| 2026-04-26 04:59 | -36.10038 | 148.14060 | 39039 ft | 484 kts | 237° |
| 2026-04-26 04:59 | -36.11954 | 148.10626 | 38353 ft | 484 kts | 237° |
| 2026-04-26 04:59 | -36.13868 | 148.07204 | 37696 ft | 483 kts | 237° |
| 2026-04-26 04:59 | -36.15779 | 148.03786 | 37063 ft | 482 kts | 237° |
| 2026-04-26 05:00 | -36.17688 | 148.00369 | 36412 ft | 481 kts | 237° |
| 2026-04-26 05:00 | -36.19599 | 147.96944 | 35733 ft | 482 kts | 237° |
| 2026-04-26 05:00 | -36.21475 | 147.93579 | 35061 ft | 482 kts | 237° |
| 2026-04-26 05:00 | -36.23380 | 147.90157 | 34391 ft | 483 kts | 237° |
| 2026-04-26 05:01 | -36.25290 | 147.86725 | 33629 ft | 484 kts | 237° |
| 2026-04-26 05:01 | -36.27197 | 147.83293 | 33070 ft | 480 kts | 236° |
| 2026-04-26 05:01 | -36.29074 | 147.79914 | 32781 ft | 471 kts | 236° |
| 2026-04-26 05:01 | -36.30924 | 147.76582 | 32410 ft | 465 kts | 236° |
| 2026-04-26 05:02 | -36.32755 | 147.73279 | 31799 ft | 464 kts | 236° |
| 2026-04-26 05:02 | -36.34592 | 147.69969 | 31149 ft | 465 kts | 236° |
| 2026-04-26 05:02 | -36.36417 | 147.66665 | 30499 ft | 466 kts | 236° |
| 2026-04-26 05:02 | -36.38247 | 147.63339 | 29857 ft | 465 kts | 236° |
| 2026-04-26 05:03 | -36.40068 | 147.60030 | 29286 ft | 462 kts | 236° |
| 2026-04-26 05:03 | -36.41860 | 147.56773 | 28748 ft | 459 kts | 237° |
| 2026-04-26 05:03 | -36.43656 | 147.53507 | 28208 ft | 456 kts | 237° |
| 2026-04-26 05:03 | -36.45442 | 147.50257 | 27667 ft | 454 kts | 237° |
| 2026-04-26 05:04 | -36.47217 | 147.47023 | 27162 ft | 451 kts | 237° |
| 2026-04-26 05:04 | -36.48980 | 147.43805 | 26694 ft | 448 kts | 237° |
| 2026-04-26 05:04 | -36.50727 | 147.40615 | 26208 ft | 445 kts | 237° |
| 2026-04-26 05:04 | -36.52461 | 147.37444 | 25749 ft | 442 kts | 237° |
| 2026-04-26 05:05 | -36.54185 | 147.34292 | 25355 ft | 438 kts | 237° |
| 2026-04-26 05:05 | -36.55894 | 147.31161 | 25234 ft | 438 kts | 238° |
| 2026-04-26 05:05 | -36.58554 | 147.26282 | 25223 ft | 420 kts | 238° |
| 2026-04-26 05:05 | -36.62542 | 147.18965 | 25224 ft | 406 kts | 238° |
| 2026-04-26 05:06 | -36.68884 | 147.07266 | 25229 ft | 407 kts | 238° |
| 2026-04-26 05:06 | -36.71571 | 147.02314 | 25227 ft | 407 kts | 238° |
| 2026-04-26 05:06 | -36.73156 | 146.99391 | 25221 ft | 407 kts | 238° |
| 2026-04-26 05:06 | -36.74736 | 146.96466 | 25226 ft | 407 kts | 238° |
| 2026-04-26 05:07 | -36.76322 | 146.93526 | 25222 ft | 407 kts | 238° |
| 2026-04-26 05:07 | -36.77903 | 146.90592 | 25230 ft | 407 kts | 238° |
| 2026-04-26 05:07 | -36.79481 | 146.87663 | 25220 ft | 407 kts | 238° |
| 2026-04-26 05:07 | -36.81059 | 146.84730 | 25211 ft | 406 kts | 238° |
| 2026-04-26 05:08 | -36.82618 | 146.81835 | 25039 ft | 397 kts | 238° |
| 2026-04-26 05:08 | -36.84154 | 146.78980 | 24727 ft | 393 kts | 238° |
| 2026-04-26 05:08 | -36.85670 | 146.76161 | 24352 ft | 390 kts | 238° |
| 2026-04-26 05:08 | -36.87151 | 146.73405 | 23848 ft | 383 kts | 238° |
| 2026-04-26 05:09 | -36.88627 | 146.70655 | 22860 ft | 380 kts | 238° |
| 2026-04-26 05:09 | -36.90105 | 146.67897 | 22193 ft | 383 kts | 238° |
| 2026-04-26 05:09 | -36.91576 | 146.65146 | 21859 ft | 378 kts | 239° |
| 2026-04-26 05:09 | -36.93032 | 146.62424 | 21474 ft | 375 kts | 239° |
| 2026-04-26 05:10 | -36.94477 | 146.59721 | 21015 ft | 370 kts | 239° |
| 2026-04-26 05:10 | -36.95895 | 146.57069 | 20345 ft | 362 kts | 239° |
| 2026-04-26 05:10 | -36.97266 | 146.54509 | 19894 ft | 348 kts | 239° |
| 2026-04-26 05:10 | -36.98597 | 146.52023 | 19265 ft | 340 kts | 239° |
| 2026-04-26 05:11 | -36.99906 | 146.49569 | 18589 ft | 337 kts | 239° |
| 2026-04-26 05:11 | -37.01202 | 146.47129 | 17980 ft | 337 kts | 239° |
| 2026-04-26 05:11 | -37.02473 | 146.44732 | 17691 ft | 333 kts | 239° |
| 2026-04-26 05:11 | -37.03764 | 146.42299 | 17359 ft | 330 kts | 239° |
| 2026-04-26 05:12 | -37.05013 | 146.39945 | 16993 ft | 327 kts | 239° |
| 2026-04-26 05:12 | -37.06272 | 146.37574 | 16647 ft | 325 kts | 239° |
| 2026-04-26 05:12 | -37.07519 | 146.35223 | 16300 ft | 323 kts | 239° |
| 2026-04-26 05:12 | -37.08757 | 146.32891 | 15968 ft | 321 kts | 239° |
| 2026-04-26 05:13 | -37.09989 | 146.30570 | 15626 ft | 319 kts | 239° |
| 2026-04-26 05:13 | -37.11211 | 146.28266 | 15279 ft | 317 kts | 239° |
| 2026-04-26 05:13 | -37.12424 | 146.25971 | 14935 ft | 315 kts | 239° |
| 2026-04-26 05:13 | -37.13629 | 146.23692 | 14619 ft | 312 kts | 239° |
| 2026-04-26 05:14 | -37.14822 | 146.21432 | 14281 ft | 310 kts | 239° |
| 2026-04-26 05:14 | -37.16011 | 146.19178 | 13936 ft | 308 kts | 239° |
| 2026-04-26 05:14 | -37.17190 | 146.16943 | 13572 ft | 306 kts | 239° |
| 2026-04-26 05:14 | -37.18361 | 146.14724 | 13280 ft | 303 kts | 239° |
| 2026-04-26 05:15 | -37.19506 | 146.12553 | 13222 ft | 303 kts | 239° |
| 2026-04-26 05:15 | -37.20663 | 146.10355 | 13215 ft | 303 kts | 239° |
| 2026-04-26 05:15 | -37.21824 | 146.08148 | 13209 ft | 302 kts | 239° |
| 2026-04-26 05:15 | -37.22981 | 146.05949 | 13211 ft | 301 kts | 239° |
| 2026-04-26 05:16 | -37.24138 | 146.03750 | 13212 ft | 302 kts | 239° |
| 2026-04-26 05:16 | -37.25293 | 146.01555 | 13207 ft | 301 kts | 239° |
| 2026-04-26 05:16 | -37.26448 | 145.99356 | 13201 ft | 301 kts | 239° |
| 2026-04-26 05:16 | -37.27603 | 145.97159 | 13210 ft | 301 kts | 239° |
| 2026-04-26 05:17 | -37.28739 | 145.94993 | 13206 ft | 301 kts | 239° |
| 2026-04-26 05:17 | -37.29893 | 145.92793 | 13201 ft | 301 kts | 239° |
| 2026-04-26 05:17 | -37.31040 | 145.90600 | 13205 ft | 301 kts | 239° |
| 2026-04-26 05:17 | -37.32197 | 145.88396 | 13208 ft | 301 kts | 239° |
| 2026-04-26 05:18 | -37.33348 | 145.86202 | 13096 ft | 299 kts | 239° |
| 2026-04-26 05:18 | -37.34490 | 145.84029 | 12824 ft | 295 kts | 240° |
| 2026-04-26 05:18 | -37.35601 | 145.81911 | 12648 ft | 286 kts | 239° |
| 2026-04-26 05:18 | -37.36683 | 145.79850 | 12416 ft | 281 kts | 240° |
| 2026-04-26 05:19 | -37.37750 | 145.77818 | 12185 ft | 276 kts | 239° |
| 2026-04-26 05:19 | -37.38785 | 145.75843 | 11904 ft | 272 kts | 240° |
| 2026-04-26 05:19 | -37.39817 | 145.73864 | 11612 ft | 271 kts | 240° |
| 2026-04-26 05:19 | -37.40851 | 145.71878 | 11315 ft | 268 kts | 239° |
| 2026-04-26 05:20 | -37.41873 | 145.69924 | 11028 ft | 266 kts | 239° |
| 2026-04-26 05:20 | -37.42886 | 145.67982 | 10729 ft | 265 kts | 240° |
| 2026-04-26 05:20 | -37.43893 | 145.66054 | 10418 ft | 263 kts | 239° |
| 2026-04-26 05:20 | -37.44895 | 145.64137 | 10083 ft | 261 kts | 239° |
| 2026-04-26 05:21 | -37.45915 | 145.62248 | 9723 ft | 261 kts | 237° |
| 2026-04-26 05:21 | -37.46996 | 145.60410 | 9378 ft | 260 kts | 236° |
| 2026-04-26 05:21 | -37.48076 | 145.58586 | 9089 ft | 258 kts | 236° |
| 2026-04-26 05:21 | -37.49133 | 145.56791 | 9026 ft | 259 kts | 237° |
| 2026-04-26 05:22 | -37.50201 | 145.54965 | 9022 ft | 259 kts | 237° |
| 2026-04-26 05:22 | -37.51271 | 145.53132 | 9022 ft | 259 kts | 237° |
| 2026-04-26 05:22 | -37.52334 | 145.51304 | 9017 ft | 258 kts | 237° |
| 2026-04-26 05:22 | -37.53388 | 145.49487 | 8862 ft | 256 kts | 237° |
| 2026-04-26 05:23 | -37.54436 | 145.47687 | 8620 ft | 251 kts | 238° |
| 2026-04-26 05:23 | -37.55457 | 145.45928 | 8420 ft | 246 kts | 238° |
| 2026-04-26 05:23 | -37.56467 | 145.44194 | 8098 ft | 243 kts | 238° |
| 2026-04-26 05:23 | -37.57463 | 145.42483 | 7553 ft | 241 kts | 238° |
| 2026-04-26 05:24 | -37.58442 | 145.40788 | 7003 ft | 240 kts | 238° |
| 2026-04-26 05:24 | -37.59425 | 145.39089 | 6483 ft | 240 kts | 238° |
| 2026-04-26 05:24 | -37.60405 | 145.37398 | 5962 ft | 237 kts | 238° |
| 2026-04-26 05:24 | -37.61358 | 145.35747 | 5638 ft | 226 kts | 238° |
| 2026-04-26 05:25 | -37.62265 | 145.34177 | 5272 ft | 218 kts | 238° |
| 2026-04-26 05:25 | -37.63153 | 145.32641 | 5062 ft | 215 kts | 239° |
| 2026-04-26 05:25 | -37.64032 | 145.31118 | 5029 ft | 214 kts | 239° |
| 2026-04-26 05:25 | -37.64885 | 145.29637 | 5007 ft | 207 kts | 240° |
| 2026-04-26 05:26 | -37.65728 | 145.28153 | 5008 ft | 205 kts | 239° |
| 2026-04-26 05:26 | -37.66556 | 145.26711 | 5002 ft | 204 kts | 239° |
| 2026-04-26 05:26 | -37.67392 | 145.25263 | 4999 ft | 204 kts | 239° |
| 2026-04-26 05:26 | -37.68227 | 145.23806 | 5001 ft | 204 kts | 239° |
| 2026-04-26 05:27 | -37.69064 | 145.22352 | 4998 ft | 204 kts | 239° |
| 2026-04-26 05:27 | -37.69901 | 145.20903 | 5003 ft | 204 kts | 239° |
| 2026-04-26 05:27 | -37.70744 | 145.19463 | 4867 ft | 202 kts | 239° |
| 2026-04-26 05:27 | -37.71567 | 145.18029 | 4559 ft | 201 kts | 239° |
| 2026-04-26 05:28 | -37.72390 | 145.16600 | 4248 ft | 201 kts | 239° |
| 2026-04-26 05:28 | -37.73219 | 145.15151 | 3834 ft | 207 kts | 239° |
| 2026-04-26 05:28 | -37.74066 | 145.13664 | 3688 ft | 208 kts | 239° |
| 2026-04-26 05:28 | -37.74894 | 145.12230 | 3576 ft | 196 kts | 239° |
| 2026-04-26 05:29 | -37.75675 | 145.10878 | 3446 ft | 185 kts | 239° |
| 2026-04-26 05:29 | -37.76719 | 145.09068 | 3266 ft | 176 kts | 239° |
| 2026-04-26 05:29 | -37.78151 | 145.06566 | 3019 ft | 174 kts | 240° |
| 2026-04-26 05:29 | -37.79558 | 145.04105 | 2993 ft | 172 kts | 241° |
| 2026-04-26 05:30 | -37.80947 | 145.01622 | 2990 ft | 172 kts | 243° |
| 2026-04-26 05:30 | -37.81746 | 144.98861 | 2996 ft | 164 kts | 263° |
| 2026-04-26 05:30 | -37.82218 | 144.96064 | 2984 ft | 162 kts | 263° |
| 2026-04-26 05:30 | -37.82482 | 144.94548 | 2989 ft | 159 kts | 263° |
| 2026-04-26 05:31 | -37.82706 | 144.93200 | 2940 ft | 154 kts | 266° |
| 2026-04-26 05:31 | -37.82862 | 144.91868 | 2843 ft | 154 kts | 267° |
| 2026-04-26 05:31 | -37.83010 | 144.90517 | 2719 ft | 155 kts | 266° |
| 2026-04-26 05:31 | -37.83135 | 144.89189 | 2633 ft | 152 kts | 272° |
| 2026-04-26 05:32 | -37.82958 | 144.87912 | 2559 ft | 146 kts | 297° |
| 2026-04-26 05:32 | -37.82248 | 144.87063 | 2492 ft | 142 kts | 334° |
| 2026-04-26 05:32 | -37.81330 | 144.86567 | 2497 ft | 147 kts | 343° |
| 2026-04-26 05:32 | -37.80332 | 144.86352 | 2498 ft | 145 kts | 349° |
| 2026-04-26 05:33 | -37.79335 | 144.86154 | 2460 ft | 146 kts | 348° |
| 2026-04-26 05:33 | -37.78328 | 144.85940 | 2261 ft | 144 kts | 348° |
| 2026-04-26 05:33 | -37.77361 | 144.85733 | 2059 ft | 136 kts | 351° |
| 2026-04-26 05:33 | -37.76431 | 144.85567 | 1879 ft | 135 kts | 354° |
| 2026-04-26 05:34 | -37.75513 | 144.85415 | 1729 ft | 135 kts | 353° |
| 2026-04-26 05:34 | -37.74565 | 144.85223 | 1537 ft | 139 kts | 349° |
| 2026-04-26 05:34 | -37.73604 | 144.85030 | 1324 ft | 137 kts | 351° |
| 2026-04-26 05:34 | -37.72684 | 144.84880 | 1140 ft | 134 kts | 351° |
| 2026-04-26 05:35 | -37.71771 | 144.84696 | 1010 ft | 134 kts | 351° |
| 2026-04-26 05:35 | -37.70826 | 144.84514 | 838 ft | 138 kts | 350° |
| 2026-04-26 05:35 | -37.69893 | 144.84336 | 695 ft | 138 kts | 350° |
| 2026-04-26 05:35 | -37.68928 | 144.84156 | 461 ft | 139 kts | 352° |
| 2026-04-26 05:36 | -37.68005 | 144.83991 | 369 ft | 126 kts | 352° |
| 2026-04-26 05:36 | -37.67257 | 144.83856 | 393 ft | 80 kts | 352° |
| 2026-04-26 05:36 | -37.66838 | 144.83777 | 405 ft | 54 kts | 351° |
| 2026-04-26 05:36 | -37.66565 | 144.83752 | 412 ft | 22 kts | 25° |
| 2026-04-26 05:37 | -37.66509 | 144.83874 | 413 ft | 15 kts | 90° |
| 2026-04-26 05:37 | -37.66510 | 144.83899 | 413 ft | 0 kts | 90° |
| 2026-04-26 05:37 | -37.66511 | 144.83918 | 413 ft | 6 kts | 94° |
| 2026-04-26 05:38 | -37.66513 | 144.83960 | 411 ft | 0 kts | 94° |
| 2026-04-26 05:38 | -37.66514 | 144.83988 | 410 ft | 7 kts | 94° |
| 2026-04-26 05:38 | -37.66528 | 144.84074 | 410 ft | 13 kts | 116° |
| 2026-04-26 05:38 | -37.66626 | 144.84160 | 412 ft | 22 kts | 165° |
| 2026-04-26 05:39 | -37.66792 | 144.84198 | 407 ft | 14 kts | 177° |
| 2026-04-26 05:39 | -37.66865 | 144.84210 | 403 ft | 13 kts | 171° |
| 2026-04-26 05:39 | -37.66972 | 144.84228 | 397 ft | 17 kts | 173° |
| 2026-04-26 05:39 | -37.67053 | 144.84306 | 396 ft | 14 kts | 97° |
| 2026-04-26 05:40 | -37.67058 | 144.84409 | 397 ft | 10 kts | 110° |
| 2026-04-26 05:40 | -37.67113 | 144.84452 | 395 ft | 10 kts | 166° |
| 2026-04-26 05:40 | -37.67184 | 144.84478 | 394 ft | 11 kts | 147° |
| 2026-04-26 05:40 | -37.67204 | 144.84545 | 392 ft | 7 kts | 89° |
| 2026-04-26 05:41 | -37.67113 | 144.84720 | 402 ft | 0 kts | 29° |